Time;durP1;ratioP1;P1;durP2;ratioP2;P2;SDS_P1;SDS_P2;PMS_P1;PMS_P2;Temp;Humidity;BMP_temperature;BMP_pressure;BME280_temperature;BME280_humidity;BME280_pressure;Samples;Min_cycle;Max_cycle;Signal;HPM_P1;HPM_P2
2023/12/19 00:00:10;;;;;;;20.58;12.35;;;;;;;9.16;65.08;101848.63;5056678;28;20412;-74
2023/12/19 00:02:35;;;;;;;17.20;11.05;;;;;;;9.19;65.14;101845.78;5053931;28;20080;-74
2023/12/19 00:05:01;;;;;;;17.70;10.65;;;;;;;9.23;64.90;101858.09;5053744;28;20187;-76
2023/12/19 00:07:30;;;;;;;16.23;10.35;;;;;;;9.27;64.55;101863.19;5050755;28;20025;-75
2023/12/19 00:09:55;;;;;;;16.35;11.75;;;;;;;9.29;64.60;101873.84;5050618;28;20386;-74
2023/12/19 00:12:21;;;;;;;18.67;10.40;;;;;;;9.13;64.58;101846.13;5050293;28;20095;-76
2023/12/19 00:14:47;;;;;;;18.10;11.10;;;;;;;9.20;65.04;101866.31;5050269;28;20032;-74
2023/12/19 00:17:12;;;;;;;19.38;10.02;;;;;;;9.15;64.55;101844.22;5050548;28;20089;-74
2023/12/19 00:19:38;;;;;;;14.30;9.68;;;;;;;9.06;64.98;101829.50;5050107;28;20021;-74
2023/12/19 00:22:03;;;;;;;18.25;11.15;;;;;;;9.04;64.88;101838.59;5050624;28;20051;-75
2023/12/19 00:24:29;;;;;;;16.00;10.43;;;;;;;8.91;65.34;101832.16;5050212;28;20115;-76
2023/12/19 00:26:54;;;;;;;22.60;10.45;;;;;;;8.94;65.50;101846.28;5049711;28;20070;-76
2023/12/19 00:29:20;;;;;;;17.35;9.05;;;;;;;8.94;65.44;101837.34;5050616;28;20029;-77
2023/12/19 00:31:45;;;;;;;12.02;8.02;;;;;;;8.99;64.97;101838.81;5050756;28;20032;-74
2023/12/19 00:34:11;;;;;;;14.05;7.43;;;;;;;8.91;64.60;101810.69;5050168;28;20036;-75
2023/12/19 00:36:36;;;;;;;14.20;8.77;;;;;;;8.91;64.75;101806.19;5050348;28;20572;-74
2023/12/19 00:39:05;;;;;;;17.00;10.20;;;;;;;9.03;64.58;101818.06;5050249;28;20401;-77
2023/12/19 00:41:30;;;;;;;17.98;10.98;;;;;;;8.99;64.43;101822.72;5050719;28;20401;-76
2023/12/19 00:43:56;;;;;;;30.67;11.43;;;;;;;9.12;64.55;101849.75;5050119;28;20025;-74
2023/12/19 00:46:22;;;;;;;22.40;12.85;;;;;;;9.14;64.38;101837.13;5050959;28;20033;-75
2023/12/19 00:48:47;;;;;;;22.35;10.02;;;;;;;9.17;64.63;101836.97;5056129;28;20033;-74
2023/12/19 00:51:13;;;;;;;14.40;9.73;;;;;;;9.25;64.14;101848.13;5052409;28;20028;-75
2023/12/19 00:53:39;;;;;;;18.50;11.65;;;;;;;9.17;63.96;101845.00;5049732;28;20612;-76
2023/12/19 00:56:07;;;;;;;17.73;10.38;;;;;;;9.25;64.47;101850.81;5049787;28;20028;-75
2023/12/19 00:58:33;;;;;;;16.05;10.02;;;;;;;9.19;63.94;101837.72;5064027;28;20029;-75
2023/12/19 01:00:58;;;;;;;21.33;10.07;;;;;;;9.34;64.09;101852.97;5050633;28;21025;-74
2023/12/19 01:03:24;;;;;;;16.20;9.13;;;;;;;9.30;64.15;101854.06;5049816;28;20106;-74
2023/12/19 01:05:49;;;;;;;14.45;9.65;;;;;;;9.37;63.70;101858.16;5050108;28;20163;-76
2023/12/19 01:08:15;;;;;;;17.65;10.13;;;;;;;9.40;63.29;101868.72;5049968;28;20029;-75
2023/12/19 01:10:41;;;;;;;14.07;9.93;;;;;;;9.39;63.34;101868.81;5049862;28;20036;-74
2023/12/19 01:13:06;;;;;;;20.52;11.10;;;;;;;9.40;63.39;101855.31;5049510;28;20029;-75
2023/12/19 01:15:32;;;;;;;19.15;11.10;;;;;;;9.36;63.12;101852.91;5050356;28;20362;-74
2023/12/19 01:17:57;;;;;;;19.73;12.80;;;;;;;9.39;63.26;101848.19;5050299;28;20116;-74
2023/12/19 01:20:23;;;;;;;35.60;21.50;;;;;;;9.40;63.45;101849.94;5049364;28;20400;-78
2023/12/19 01:22:48;;;;;;;34.95;22.25;;;;;;;9.28;63.25;101826.47;5049685;28;20051;-74
2023/12/19 01:25:14;;;;;;;33.88;20.58;;;;;;;9.30;63.19;101843.34;5049137;28;20103;-75
2023/12/19 01:27:39;;;;;;;25.63;15.98;;;;;;;9.34;63.23;101854.78;5049573;28;20039;-75
2023/12/19 01:30:05;;;;;;;17.85;12.73;;;;;;;9.31;63.21;101847.78;5049240;28;20098;-75
2023/12/19 01:32:31;;;;;;;35.45;13.90;;;;;;;9.28;63.14;101850.63;5047413;28;20087;-74
2023/12/19 01:34:56;;;;;;;28.13;14.40;;;;;;;9.26;63.35;101847.16;5049082;28;20155;-76
2023/12/19 01:37:22;;;;;;;18.65;11.13;;;;;;;9.27;63.44;101843.50;5050022;28;20104;-75
2023/12/19 01:39:47;;;;;;;16.42;12.18;;;;;;;9.19;63.21;101832.34;5053431;28;20477;-75
2023/12/19 01:42:13;;;;;;;28.45;12.50;;;;;;;9.24;63.55;101838.31;5050327;28;20037;-75
2023/12/19 01:44:38;;;;;;;21.30;11.73;;;;;;;9.18;63.36;101833.28;5048080;28;20033;-76
2023/12/19 01:47:04;;;;;;;21.70;11.90;;;;;;;9.26;63.54;101839.97;5048395;28;20580;-75
2023/12/19 01:49:29;;;;;;;28.92;12.50;;;;;;;9.25;63.12;101840.06;5048494;28;20124;-76
2023/12/19 01:51:55;;;;;;;32.17;16.70;;;;;;;9.22;63.30;101837.56;5048201;28;20448;-74
2023/12/19 01:54:21;;;;;;;26.08;14.27;;;;;;;9.09;63.06;101817.72;5048321;28;20074;-74
2023/12/19 01:56:47;;;;;;;21.42;13.45;;;;;;;9.22;63.07;101825.00;5048087;28;20025;-74
2023/12/19 01:59:13;;;;;;;21.60;12.05;;;;;;;9.23;62.87;101821.34;5048347;28;20052;-75
2023/12/19 02:01:39;;;;;;;38.50;11.32;;;;;;;9.18;62.81;101812.69;5048057;28;20013;-75
2023/12/19 02:04:06;;;;;;;21.73;11.95;;;;;;;9.20;63.00;101815.31;5048327;28;20481;-76
2023/12/19 02:06:34;;;;;;;21.90;12.27;;;;;;;9.21;62.95;101827.75;5047732;28;20417;-74
2023/12/19 02:08:59;;;;;;;21.42;12.73;;;;;;;9.17;62.85;101826.22;5048078;28;20029;-75
2023/12/19 02:11:25;;;;;;;22.02;11.52;;;;;;;9.12;62.79;101829.16;5047746;28;20056;-76
2023/12/19 02:13:51;;;;;;;17.58;11.48;;;;;;;9.10;62.94;101817.66;5048505;28;20405;-76
2023/12/19 02:16:16;;;;;;;17.73;12.48;;;;;;;9.17;62.82;101820.84;5048297;28;20025;-74
2023/12/19 02:18:43;;;;;;;28.75;12.63;;;;;;;9.05;62.87;101825.06;5048272;28;20025;-75
2023/12/19 02:21:08;;;;;;;19.60;11.95;;;;;;;9.08;62.84;101826.75;5048833;28;20044;-75
2023/12/19 02:23:34;;;;;;;17.73;12.73;;;;;;;9.08;63.13;101821.38;5048375;28;20409;-74
2023/12/19 02:25:59;;;;;;;23.58;12.00;;;;;;;9.03;63.14;101828.78;5046350;28;20048;-79
2023/12/19 02:28:25;;;;;;;20.17;12.43;;;;;;;9.05;63.31;101822.38;5048706;28;20025;-76
2023/12/19 02:30:50;;;;;;;21.95;11.98;;;;;;;8.80;63.12;101762.16;5050494;28;20093;-76
2023/12/19 02:33:16;;;;;;;34.55;13.10;;;;;;;9.06;62.90;101807.16;5047365;28;20021;-77
2023/12/19 02:35:42;;;;;;;24.60;11.55;;;;;;;9.13;62.69;101814.78;5048142;28;20025;-76
2023/12/19 02:38:07;;;;;;;17.88;11.50;;;;;;;9.22;62.47;101829.50;5049041;28;20051;-77
2023/12/19 02:40:33;;;;;;;22.70;14.40;;;;;;;9.16;62.63;101813.75;5046643;28;20028;-78
2023/12/19 02:42:59;;;;;;;29.45;13.20;;;;;;;9.18;62.39;101819.88;5047362;28;20029;-77
2023/12/19 02:45:24;;;;;;;26.85;15.15;;;;;;;9.12;62.09;101812.16;5047558;28;20033;-76
2023/12/19 02:47:50;;;;;;;19.70;11.85;;;;;;;9.18;62.08;101815.38;5046858;28;20031;-77
2023/12/19 02:50:15;;;;;;;44.28;20.23;;;;;;;9.14;62.16;101810.28;5046821;28;20110;-75
2023/12/19 02:52:41;;;;;;;30.35;15.43;;;;;;;8.80;62.50;101771.06;5047242;28;20064;-78
2023/12/19 02:55:07;;;;;;;27.30;13.40;;;;;;;8.99;62.85;101805.78;5047034;28;20554;-75
2023/12/19 02:57:32;;;;;;;21.67;12.32;;;;;;;8.98;63.04;101801.34;5047040;28;20076;-76
2023/12/19 02:59:58;;;;;;;18.90;11.85;;;;;;;8.88;62.54;101794.78;5046824;28;20040;-77
2023/12/19 03:02:23;;;;;;;22.83;11.27;;;;;;;8.81;62.79;101793.41;5046413;28;20100;-77
2023/12/19 03:04:49;;;;;;;18.98;11.90;;;;;;;8.87;63.03;101806.47;5046418;28;20032;-75
2023/12/19 03:07:14;;;;;;;19.38;11.25;;;;;;;8.62;62.94;101780.97;5047358;28;20025;-77
2023/12/19 03:09:40;;;;;;;15.07;10.40;;;;;;;8.83;63.36;101802.22;5047517;28;20110;-75
2023/12/19 03:12:07;;;;;;;20.73;12.32;;;;;;;8.86;63.53;101804.72;5048120;28;20025;-76
2023/12/19 03:14:34;;;;;;;20.52;12.30;;;;;;;8.94;63.44;101815.88;5047662;28;20029;-78
2023/12/19 03:17:04;;;;;;;27.20;12.85;;;;;;;8.93;63.68;101811.50;5049901;28;20017;-77
2023/12/19 03:19:30;;;;;;;19.05;12.13;;;;;;;8.99;63.14;101805.78;5048907;28;20189;-77
2023/12/19 03:21:56;;;;;;;17.35;11.95;;;;;;;8.99;62.70;101806.63;5048293;28;20025;-77
2023/12/19 03:24:22;;;;;;;19.48;12.30;;;;;;;9.05;62.93;101822.38;5044871;28;20051;-77
2023/12/19 03:26:48;;;;;;;24.40;13.30;;;;;;;9.01;62.67;101814.59;5047847;28;20179;-78
2023/12/19 03:29:14;;;;;;;25.48;12.82;;;;;;;9.05;62.34;101808.13;5047935;28;20115;-76
2023/12/19 03:31:40;;;;;;;26.02;12.88;;;;;;;9.06;62.57;101808.03;5048184;28;20040;-77
2023/12/19 03:34:06;;;;;;;19.98;11.65;;;;;;;8.94;62.19;101781.00;5046877;28;20033;-77
2023/12/19 03:36:32;;;;;;;18.75;12.07;;;;;;;8.91;62.52;101775.81;5046601;28;20075;-76
2023/12/19 03:38:57;;;;;;;19.52;12.10;;;;;;;8.82;62.32;101770.97;5047066;28;20396;-78
2023/12/19 03:41:23;;;;;;;28.17;12.18;;;;;;;9.02;62.49;101792.19;5047680;28;20461;-79
2023/12/19 03:43:48;;;;;;;20.42;12.40;;;;;;;9.05;62.10;101783.97;5052249;28;20114;-76
2023/12/19 03:46:14;;;;;;;23.27;12.15;;;;;;;9.08;62.23;101783.81;5051852;28;20124;-80
2023/12/19 03:48:44;;;;;;;31.05;12.02;;;;;;;9.13;62.19;101792.44;5051874;28;20035;-77
2023/12/19 03:51:10;;;;;;;37.95;12.68;;;;;;;9.13;62.11;101774.53;5050152;28;20029;-77
2023/12/19 03:53:36;;;;;;;25.17;10.90;;;;;;;9.10;61.66;101779.19;5051985;28;20112;-77
2023/12/19 03:56:01;;;;;;;29.10;12.35;;;;;;;9.19;62.06;101784.03;5050810;28;20025;-76
2023/12/19 03:58:27;;;;;;;18.65;11.15;;;;;;;9.15;61.89;101780.66;5052472;28;20025;-78
2023/12/19 04:00:52;;;;;;;16.17;11.15;;;;;;;9.14;61.30;101783.44;5062761;28;20697;-75
2023/12/19 04:03:18;;;;;;;19.67;12.35;;;;;;;8.95;61.75;101754.09;5072374;28;20090;-76
2023/12/19 04:05:44;;;;;;;21.23;12.55;;;;;;;9.00;61.62;101772.63;5071954;28;20025;-80
2023/12/19 04:08:10;;;;;;;26.40;11.93;;;;;;;8.98;61.82;101771.84;5073410;28;20093;-77
2023/12/19 04:10:35;;;;;;;18.45;11.85;;;;;;;9.06;61.68;101764.22;5069743;28;20031;-76
2023/12/19 04:13:01;;;;;;;22.90;12.02;;;;;;;9.15;61.86;101788.72;5049780;28;20496;-79
2023/12/19 04:15:26;;;;;;;35.30;13.35;;;;;;;8.97;61.74;101786.19;5050619;28;20021;-76
2023/12/19 04:17:52;;;;;;;36.33;15.52;;;;;;;8.96;61.98;101779.13;5049971;28;20405;-77
2023/12/19 04:20:17;;;;;;;28.33;15.30;;;;;;;9.12;61.69;101812.16;5050347;28;20061;-78
2023/12/19 04:22:43;;;;;;;23.90;14.13;;;;;;;9.09;61.55;101797.13;5050527;28;20471;-76
2023/12/19 04:25:09;;;;;;;28.67;14.57;;;;;;;9.12;61.31;101790.69;5050476;28;20086;-76
2023/12/19 04:27:35;;;;;;;24.58;12.68;;;;;;;9.12;61.53;101785.34;5050021;28;20021;-78
2023/12/19 04:30:01;;;;;;;28.17;15.02;;;;;;;8.98;61.04;101782.56;5049902;28;20110;-76
2023/12/19 04:32:27;;;;;;;31.52;16.17;;;;;;;8.94;61.68;101789.06;5050309;28;20493;-77
2023/12/19 04:34:52;;;;;;;49.20;17.73;;;;;;;9.04;61.60;101804.56;5048947;28;20063;-80
2023/12/19 04:37:18;;;;;;;23.63;15.15;;;;;;;9.03;61.46;101807.31;5050230;28;20021;-75
2023/12/19 04:39:43;;;;;;;28.80;14.65;;;;;;;9.02;61.77;101808.28;5050113;28;20416;-76
2023/12/19 04:42:09;;;;;;;24.80;13.98;;;;;;;9.02;61.76;101811.81;5048708;28;20029;-76
2023/12/19 04:44:34;;;;;;;21.38;13.82;;;;;;;8.97;61.55;101805.84;5050269;28;20080;-76
2023/12/19 04:47:00;;;;;;;23.73;14.30;;;;;;;8.96;61.69;101806.78;5050239;28;20037;-75
2023/12/19 04:49:25;;;;;;;27.33;15.52;;;;;;;8.96;61.76;101817.53;5048979;28;20040;-77
2023/12/19 04:51:54;;;;;;;30.15;16.33;;;;;;;8.95;62.10;101812.25;5050388;28;20040;-77
2023/12/19 04:54:20;;;;;;;42.15;17.30;;;;;;;8.85;62.00;101819.09;5049101;28;20098;-76
2023/12/19 04:56:45;;;;;;;35.53;16.45;;;;;;;8.68;61.84;101804.78;5052546;28;20025;-76
2023/12/19 04:59:11;;;;;;;25.63;15.57;;;;;;;8.71;62.50;101823.38;5054828;28;20111;-77
2023/12/19 05:01:40;;;;;;;30.17;16.90;;;;;;;8.77;62.09;101825.72;5050602;28;20528;-76
2023/12/19 05:04:06;;;;;;;54.97;17.23;;;;;;;8.82;62.29;101829.97;5049244;28;20029;-77
2023/12/19 05:06:31;;;;;;;30.20;15.73;;;;;;;8.47;62.40;101780.97;5049297;28;20496;-76
2023/12/19 05:08:57;;;;;;;40.88;17.00;;;;;;;8.83;62.10;101837.97;5049397;28;20047;-76
2023/12/19 05:11:23;;;;;;;27.88;15.57;;;;;;;8.75;62.00;101824.97;5049429;28;20109;-74
2023/12/19 05:13:49;;;;;;;37.92;17.10;;;;;;;8.79;62.12;101828.34;5049506;28;20056;-76
2023/12/19 05:16:16;;;;;;;32.38;15.82;;;;;;;8.66;62.36;101808.50;5063596;28;20066;-76
2023/12/19 05:18:43;;;;;;;41.75;16.00;;;;;;;8.86;62.04;101831.56;5049453;28;20095;-77
2023/12/19 05:21:10;;;;;;;28.60;16.40;;;;;;;8.74;62.09;101823.22;5049469;28;20057;-77
2023/12/19 05:23:36;;;;;;;72.78;19.15;;;;;;;8.85;62.50;101829.81;5047831;28;20044;-78
2023/12/19 05:26:06;;;;;;;66.90;19.83;;;;;;;8.88;62.34;101835.00;5048876;28;20175;-77
2023/12/19 05:28:35;;;;;;;66.60;22.30;;;;;;;8.68;61.91;101785.16;5048756;28;20031;-80
2023/12/19 05:31:02;;;;;;;73.85;20.42;;;;;;;8.92;61.67;101823.16;5049320;28;20029;-77
2023/12/19 05:33:28;;;;;;;74.93;21.55;;;;;;;8.87;62.10;101817.19;5049053;28;20025;-77
2023/12/19 05:35:54;;;;;;;38.78;16.80;;;;;;;8.80;62.33;101805.06;5049376;28;20029;-76
2023/12/19 05:38:20;;;;;;;25.45;14.65;;;;;;;8.74;62.28;101807.13;5047333;28;20616;-80
2023/12/19 05:40:46;;;;;;;99.80;20.08;;;;;;;8.82;61.84;101827.28;5049935;28;20033;-78
2023/12/19 05:43:16;;;;;;;33.42;16.50;;;;;;;8.73;61.82;101826.88;5049602;28;20094;-75
2023/12/19 05:45:41;;;;;;;71.90;17.23;;;;;;;8.67;62.57;101827.19;5049188;28;20045;-77
2023/12/19 05:48:07;;;;;;;53.45;18.48;;;;;;;8.49;62.53;101795.16;5055228;28;20397;-77
2023/12/19 05:50:33;;;;;;;38.95;18.85;;;;;;;8.75;63.03;101830.31;5052622;28;20129;-76
2023/12/19 05:52:59;;;;;;;60.33;20.23;;;;;;;8.77;62.64;101832.94;5048683;28;20120;-79
2023/12/19 05:55:24;;;;;;;120.07;25.00;;;;;;;8.83;62.99;101845.13;5048688;28;20024;-78
2023/12/19 05:57:50;;;;;;;55.72;23.02;;;;;;;8.83;62.06;101843.31;5048529;28;20021;-77
2023/12/19 06:00:17;;;;;;;43.67;17.92;;;;;;;8.79;61.98;101846.25;5048955;28;20040;-77
2023/12/19 06:02:43;;;;;;;40.85;18.05;;;;;;;8.74;62.07;101844.66;5047800;28;20056;-76
2023/12/19 06:05:09;;;;;;;42.28;20.30;;;;;;;8.72;62.17;101835.84;5048409;28;20024;-75
2023/12/19 06:07:37;;;;;;;47.15;20.77;;;;;;;8.63;62.83;101809.53;5047898;28;20029;-77
2023/12/19 06:10:08;;;;;;;111.22;24.00;;;;;;;8.66;62.48;101814.72;5048466;28;20032;-76
2023/12/19 06:12:34;;;;;;;49.80;20.17;;;;;;;8.73;62.53;101820.63;5047841;28;20064;-75
2023/12/19 06:14:59;;;;;;;89.90;28.90;;;;;;;8.77;61.92;101849.88;5048175;28;20048;-78
2023/12/19 06:17:25;;;;;;;47.22;25.75;;;;;;;8.81;62.09;101850.56;5029485;28;20033;-75
2023/12/19 06:19:50;;;;;;;165.35;31.35;;;;;;;8.76;62.10;101825.81;5027674;28;20025;-77
2023/12/19 06:22:16;;;;;;;56.95;25.50;;;;;;;8.92;62.49;101850.00;5046570;28;20412;-78
2023/12/19 06:24:42;;;;;;;127.43;33.47;;;;;;;8.95;61.84;101847.16;5049049;28;20025;-76
2023/12/19 06:27:07;;;;;;;148.20;34.55;;;;;;;8.97;62.23;101846.09;5047827;28;20102;-78
2023/12/19 06:29:33;;;;;;;128.63;30.13;;;;;;;9.08;62.07;101842.84;5048386;28;20084;-77
2023/12/19 06:31:58;;;;;;;106.85;31.45;;;;;;;9.08;61.77;101840.16;5049300;28;20079;-79
2023/12/19 06:34:26;;;;;;;67.45;25.20;;;;;;;9.09;61.46;101833.81;5049484;28;20023;-76
2023/12/19 06:36:51;;;;;;;102.95;32.45;;;;;;;9.12;61.35;101829.16;5055761;28;20032;-78
2023/12/19 06:39:17;;;;;;;145.68;31.33;;;;;;;9.16;61.03;101828.03;5055550;28;20033;-78
2023/12/19 06:41:42;;;;;;;166.27;40.80;;;;;;;9.31;61.16;101839.72;5048868;28;20091;-77
2023/12/19 06:44:08;;;;;;;117.35;31.13;;;;;;;9.31;60.79;101839.72;5047842;28;20443;-76
2023/12/19 06:46:33;;;;;;;68.97;27.83;;;;;;;9.32;60.91;101827.16;5047512;28;20040;-77
2023/12/19 06:48:59;;;;;;;89.47;27.20;;;;;;;9.35;60.76;101827.84;5048373;28;20029;-79
2023/12/19 06:51:25;;;;;;;90.55;31.13;;;;;;;9.55;60.60;101856.22;5048367;28;20463;-79
2023/12/19 06:53:53;;;;;;;151.57;35.13;;;;;;;9.56;60.52;101848.09;5048517;28;20064;-77
2023/12/19 06:56:19;;;;;;;84.60;30.17;;;;;;;9.59;60.33;101850.63;5028407;28;20108;-77
2023/12/19 06:58:45;;;;;;;79.65;27.90;;;;;;;9.62;60.24;101865.69;5033665;28;20119;-81
2023/12/19 07:01:10;;;;;;;75.93;27.52;;;;;;;9.19;59.92;101792.09;5048269;28;20471;-80
2023/12/19 07:03:36;;;;;;;84.50;30.08;;;;;;;9.62;60.21;101866.56;5047847;28;20108;-77
2023/12/19 07:06:02;;;;;;;78.93;32.58;;;;;;;9.62;60.44;101869.25;5047561;28;20481;-80
2023/12/19 07:08:32;;;;;;;75.55;33.40;;;;;;;9.58;60.06;101859.63;5048984;28;20044;-77
2023/12/19 07:10:57;;;;;;;77.38;34.63;;;;;;;9.59;60.45;101849.75;5048293;28;20033;-81
2023/12/19 07:13:23;;;;;;;105.35;35.80;;;;;;;9.54;60.04;101841.94;5049377;28;20025;-80
2023/12/19 07:15:48;;;;;;;87.57;36.88;;;;;;;9.74;60.30;101860.47;5048418;28;20099;-80
2023/12/19 07:18:14;;;;;;;90.25;36.53;;;;;;;9.57;60.13;101831.00;5053370;28;20047;-81
2023/12/19 07:20:39;;;;;;;82.47;35.92;;;;;;;9.74;60.06;101865.84;5053554;28;20481;-80
2023/12/19 07:23:05;;;;;;;69.95;32.30;;;;;;;9.77;60.13;101865.66;5052722;28;20025;-78
2023/12/19 07:25:30;;;;;;;70.32;30.77;;;;;;;9.42;59.95;101809.59;5052389;28;20048;-79
2023/12/19 07:27:56;;;;;;;57.70;29.65;;;;;;;9.80;59.95;101868.16;5064115;28;20059;-80
2023/12/19 07:30:22;;;;;;;81.93;31.27;;;;;;;9.79;59.93;101869.13;5056785;28;20033;-79
2023/12/19 07:32:50;;;;;;;60.30;28.30;;;;;;;9.88;59.88;101867.69;5052412;28;20025;-79
2023/12/19 07:35:19;;;;;;;72.80;30.50;;;;;;;9.86;59.99;101858.88;5052167;28;20025;-79
2023/12/19 07:37:47;;;;;;;55.22;27.10;;;;;;;10.04;59.78;101873.03;5052404;28;20025;-78
2023/12/19 07:40:13;;;;;;;57.63;27.08;;;;;;;10.09;59.53;101868.28;5051333;28;20103;-79
2023/12/19 07:42:41;;;;;;;55.50;27.13;;;;;;;10.14;59.07;101868.91;5051346;28;20200;-76
2023/12/19 07:45:07;;;;;;;45.15;24.08;;;;;;;10.08;58.67;101858.47;5051355;28;20075;-80
2023/12/19 07:47:33;;;;;;;56.50;24.85;;;;;;;10.25;58.48;101861.03;5051692;28;20060;-78
2023/12/19 07:49:58;;;;;;;74.15;24.95;;;;;;;10.35;59.16;101856.84;5032743;28;20125;-80
2023/12/19 07:52:24;;;;;;;55.47;25.63;;;;;;;10.28;58.87;101831.28;5051570;28;20032;-78
2023/12/19 07:54:49;;;;;;;73.43;26.02;;;;;;;10.51;58.93;101859.47;5049611;28;20162;-81
2023/12/19 07:57:16;;;;;;;71.38;29.23;;;;;;;10.59;58.36;101865.22;5052174;28;20091;-82
2023/12/19 07:59:41;;;;;;;58.88;23.95;;;;;;;10.46;58.31;101822.06;5051877;28;20029;-81
2023/12/19 08:02:07;;;;;;;84.35;27.83;;;;;;;10.74;58.28;101850.81;5051423;28;20036;-81
2023/12/19 08:04:34;;;;;;;101.30;31.45;;;;;;;10.91;57.64;101859.59;5051644;28;20024;-77
2023/12/19 08:06:59;;;;;;;58.28;23.70;;;;;;;10.99;57.25;101844.75;5051534;28;20040;-82
2023/12/19 08:09:28;;;;;;;69.75;25.70;;;;;;;11.15;56.78;101854.47;5052735;28;20087;-77
2023/12/19 08:11:56;;;;;;;61.58;23.35;;;;;;;11.25;56.78;101850.19;5052898;28;20033;-77
2023/12/19 08:14:22;;;;;;;60.95;22.65;;;;;;;11.27;56.10;101842.88;5051469;28;20044;-76
2023/12/19 08:16:48;;;;;;;127.82;27.95;;;;;;;11.35;55.89;101842.38;5052929;28;20021;-77
2023/12/19 08:19:16;;;;;;;52.35;24.60;;;;;;;11.32;55.34;101803.03;5056833;28;20112;-77
2023/12/19 08:21:52;;;;;;;66.68;27.33;;;;;;;11.55;55.15;101841.09;5050279;28;20040;-77
2023/12/19 08:24:18;;;;;;;95.00;29.13;;;;;;;11.55;55.48;101820.41;5049621;28;20025;-79
2023/12/19 08:26:50;;;;;;;86.38;31.08;;;;;;;11.68;55.50;101821.28;5049857;28;20057;-76
2023/12/19 08:29:16;;;;;;;80.57;33.00;;;;;;;11.80;55.95;101803.47;5048739;28;20048;-79
2023/12/19 08:31:46;;;;;;;81.80;29.70;;;;;;;11.95;54.68;101814.09;5047437;28;20574;-77
2023/12/19 08:34:12;;;;;;;80.00;32.38;;;;;;;12.00;54.41;101792.19;5049542;28;20102;-77
2023/12/19 08:36:38;;;;;;;117.28;34.53;;;;;;;12.21;53.83;101814.09;5049635;28;20528;-76
2023/12/19 08:39:08;;;;;;;106.65;32.05;;;;;;;12.42;53.87;101812.59;5049137;28;20060;-76
2023/12/19 08:41:33;;;;;;;68.78;30.27;;;;;;;12.47;53.46;101788.88;5049768;28;20033;-75
2023/12/19 08:43:59;;;;;;;79.93;26.40;;;;;;;12.60;52.58;101810.47;5049805;28;20043;-77
2023/12/19 08:46:25;;;;;;;74.93;24.70;;;;;;;12.69;52.57;101789.06;5049750;28;20037;-75
2023/12/19 08:48:50;;;;;;;101.70;23.80;;;;;;;12.85;52.10;101795.09;5049747;28;20508;-78
2023/12/19 08:51:17;;;;;;;78.57;27.30;;;;;;;12.94;51.70;101789.00;5049371;28;20041;-76
2023/12/19 08:53:43;;;;;;;97.60;35.10;;;;;;;13.00;52.01;101776.91;5049847;28;20052;-80
2023/12/19 08:56:08;;;;;;;51.17;23.92;;;;;;;13.16;50.73;101795.56;5049089;28;20079;-79
2023/12/19 08:58:34;;;;;;;92.93;24.65;;;;;;;13.26;51.07;101777.72;5050375;28;20036;-79
2023/12/19 09:00:59;;;;;;;48.72;20.40;;;;;;;13.36;51.32;101779.59;5051755;28;20036;-78
2023/12/19 09:03:25;;;;;;;53.60;22.33;;;;;;;13.42;50.45;101754.81;5050991;28;20031;-78
2023/12/19 09:05:50;;;;;;;68.88;22.23;;;;;;;13.57;50.70;101771.75;5056579;28;20033;-80
2023/12/19 09:08:16;;;;;;;50.10;19.40;;;;;;;13.52;50.44;101747.75;5056563;28;20024;-81
2023/12/19 09:10:42;;;;;;;89.05;23.63;;;;;;;13.74;49.50;101762.34;5055039;28;20025;-79
2023/12/19 09:13:08;;;;;;;72.20;19.45;;;;;;;13.89;48.97;101763.84;5049833;28;20059;-83
2023/12/19 09:15:35;;;;;;;62.10;21.38;;;;;;;13.94;48.80;101751.69;5050335;28;20033;-83
2023/12/19 09:18:02;;;;;;;67.60;21.38;;;;;;;13.96;48.45;101738.94;5050612;28;20075;-80
2023/12/19 09:20:28;;;;;;;67.70;20.52;;;;;;;13.86;48.30;101691.06;5049546;28;20083;-80
2023/12/19 09:22:54;;;;;;;57.10;18.50;;;;;;;14.12;48.34;101725.94;5049972;28;20040;-80
2023/12/19 09:25:19;;;;;;;77.57;23.80;;;;;;;14.32;48.61;101745.13;5050115;28;20047;-79
2023/12/19 09:27:45;;;;;;;44.05;17.00;;;;;;;14.32;47.83;101737.00;5049899;28;20115;-78
2023/12/19 09:30:12;;;;;;;42.45;17.67;;;;;;;14.34;47.58;101718.88;5050259;28;20040;-85
2023/12/19 09:32:40;;;;;;;54.53;17.73;;;;;;;14.41;47.71;101722.78;5050929;28;20035;-82
2023/12/19 09:35:07;;;;;;;33.05;17.52;;;;;;;14.29;47.66;101710.19;5050794;28;20035;-81
2023/12/19 09:37:32;;;;;;;56.20;20.05;;;;;;;14.46;48.06;101715.16;5050320;28;20092;-81
2023/12/19 09:40:01;;;;;;;49.58;20.33;;;;;;;14.37;47.54;101692.38;5050741;28;20127;-80
2023/12/19 09:42:27;;;;;;;52.90;23.30;;;;;;;14.48;47.90;101718.59;5050924;28;20024;-82
2023/12/19 09:44:52;;;;;;;57.40;23.42;;;;;;;14.31;48.35;101692.00;5050748;28;20470;-83
2023/12/19 09:47:23;;;;;;;56.65;25.52;;;;;;;14.47;47.86;101700.63;5051289;28;20021;-80
2023/12/19 09:49:53;;;;;;;84.90;26.08;;;;;;;14.41;48.31;101671.34;5051872;28;20044;-80
2023/12/19 09:52:21;;;;;;;64.93;25.40;;;;;;;14.63;47.72;101693.00;5051646;28;20086;-80
2023/12/19 09:54:50;;;;;;;46.05;22.13;;;;;;;14.47;47.41;101650.06;5057038;28;20500;-80
2023/12/19 09:57:17;;;;;;;69.95;23.60;;;;;;;14.73;46.79;101687.69;5067045;28;20028;-81
2023/12/19 09:59:45;;;;;;;108.60;24.67;;;;;;;14.79;47.02;101682.63;5062970;28;20044;-81
2023/12/19 10:02:11;;;;;;;56.90;24.65;;;;;;;14.88;46.99;101686.44;5060833;28;20029;-81
2023/12/19 10:04:36;;;;;;;57.00;20.33;;;;;;;14.85;46.65;101663.16;5049118;28;20025;-79
2023/12/19 10:07:02;;;;;;;36.42;16.58;;;;;;;14.99;46.41;101672.84;5049400;28;20020;-80
2023/12/19 10:09:28;;;;;;;35.85;14.85;;;;;;;14.86;45.63;101662.16;5050317;28;20098;-83
2023/12/19 10:12:06;;;;;;;56.65;16.58;;;;;;;15.01;45.50;101669.03;5048474;28;20105;-79
2023/12/19 10:14:34;;;;;;;41.38;14.43;;;;;;;14.99;45.60;101662.00;5048142;28;20029;-79
2023/12/19 10:17:05;;;;;;;30.83;14.57;;;;;;;14.92;45.40;101639.97;5048429;28;20049;-76
2023/12/19 10:19:33;;;;;;;32.20;14.57;;;;;;;15.04;44.75;101639.00;5048434;28;20055;-77
2023/12/19 10:22:06;;;;;;;33.40;15.65;;;;;;;15.05;45.14;101643.41;5048135;28;20489;-79
2023/12/19 10:24:32;;;;;;;57.35;18.70;;;;;;;15.05;45.60;101628.97;5048178;28;20580;-81
2023/12/19 10:27:00;;;;;;;61.63;20.38;;;;;;;15.18;45.65;101629.69;5048367;28;20448;-77
2023/12/19 10:29:25;;;;;;;36.10;16.42;;;;;;;15.32;45.62;101640.19;5048413;28;20166;-81
2023/12/19 10:31:51;;;;;;;70.55;21.00;;;;;;;15.37;45.86;101624.41;5049083;28;20021;-79
2023/12/19 10:34:22;;;;;;;46.63;16.33;;;;;;;15.25;45.34;101582.09;5048967;28;20400;-79
2023/12/19 10:36:48;;;;;;;85.83;23.20;;;;;;;15.43;44.73;101615.75;5048908;28;20035;-80
2023/12/19 10:39:18;;;;;;;39.97;18.13;;;;;;;15.48;45.03;101604.53;5050955;28;20384;-78
2023/12/19 10:41:44;;;;;;;55.83;15.90;;;;;;;15.52;44.42;101606.00;5049706;28;20028;-77
2023/12/19 10:44:12;;;;;;;45.63;15.10;;;;;;;15.51;44.35;101604.25;5052280;28;20032;-81
2023/12/19 10:46:38;;;;;;;33.58;12.75;;;;;;;15.52;44.36;101623.13;5058016;28;20029;-81
2023/12/19 10:49:04;;;;;;;39.65;14.52;;;;;;;15.35;44.23;101599.25;5051300;28;20116;-79
2023/12/19 10:51:33;;;;;;;44.13;15.07;;;;;;;15.40;44.80;101607.03;5047429;28;20040;-79
2023/12/19 10:54:13;;;;;;;67.60;15.85;;;;;;;15.12;45.07;101559.75;5048629;28;20043;-79
2023/12/19 10:57:00;;;;;;;36.30;12.57;;;;;;;15.14;45.02;101569.44;5049646;28;20059;-84
2023/12/19 10:59:48;;;;;;;49.90;15.25;;;;;;;15.26;44.59;101595.50;5048267;28;20112;-84
2023/12/19 11:02:35;;;;;;;41.08;14.07;;;;;;;15.33;44.58;101589.56;5048387;28;20515;-76
2023/12/19 11:05:32;;;;;;;40.50;10.98;;;;;;;15.24;45.34;101588.50;5048254;28;20031;-79
2023/12/19 11:08:03;;;;;;;32.20;11.63;;;;;;;15.00;45.55;101571.63;5048026;28;20028;-79
2023/12/19 11:10:37;;;;;;;40.33;11.07;;;;;;;14.96;45.50;101571.03;5047984;28;20060;-79